createdAt,value
2019-05-30T00:01:08.077Z,101568.67
2019-05-30T00:06:11.790Z,101569.39
2019-05-30T00:11:15.289Z,101560.58
2019-05-30T00:16:19.074Z,101560.48
2019-05-30T00:21:22.779Z,101566.18
2019-05-30T00:26:26.405Z,101557.80
2019-05-30T00:31:29.955Z,101556.89
2019-05-30T00:36:33.613Z,101557.12
2019-05-30T00:41:37.167Z,101552.95
2019-05-30T00:46:40.802Z,101554.70
2019-05-30T00:51:44.451Z,101547.23
2019-05-30T00:56:48.230Z,101541.00
2019-05-30T01:01:51.944Z,101534.80
2019-05-30T01:06:56.847Z,101538.55
2019-05-30T01:12:01.132Z,101516.03
2019-05-30T01:17:05.332Z,101543.67
2019-05-30T01:22:09.082Z,101545.41
2019-05-30T01:27:13.124Z,101532.67
2019-05-30T01:32:29.554Z,101531.52
2019-05-30T01:37:33.236Z,101527.81
2019-05-30T01:42:36.850Z,101525.84
2019-05-30T01:47:40.394Z,101520.19
2019-05-30T01:52:44.159Z,101517.99
2019-05-30T01:57:47.983Z,101509.98
2019-05-30T02:02:51.646Z,101507.38
2019-05-30T02:07:55.364Z,101505.11
2019-05-30T02:12:59.596Z,101503.84
2019-05-30T02:18:03.606Z,101505.19
2019-05-30T02:23:08.101Z,101506.92
2019-05-30T02:28:12.810Z,101509.60
2019-05-30T02:33:16.628Z,101516.66
2019-05-30T02:38:20.607Z,101518.37
2019-05-30T02:43:24.687Z,101517.27
2019-05-30T02:48:28.231Z,101516.81
2019-05-30T02:53:31.924Z,101516.59
2019-05-30T02:58:37.797Z,101518.30
2019-05-30T03:03:41.414Z,101527.42
2019-05-30T03:08:45.045Z,101532.32
2019-05-30T03:13:49.021Z,101524.38
2019-05-30T03:18:52.891Z,101524.38
2019-05-30T03:23:56.712Z,101531.61
2019-05-30T03:29:02.539Z,101525.30
2019-05-30T03:34:16.415Z,101527.64
2019-05-30T03:39:13.130Z,101537.41
2019-05-30T03:44:17.482Z,101540.48
2019-05-30T03:49:24.122Z,101542.34
2019-05-30T03:54:27.913Z,101541.00
2019-05-30T03:59:34.556Z,101539.86
2019-05-30T04:04:44.086Z,101547.77
2019-05-30T04:09:50.786Z,101548.36
2019-05-30T04:14:57.466Z,101541.41
2019-05-30T04:20:01.026Z,101544.02
2019-05-30T04:25:08.593Z,101556.73
2019-05-30T04:30:14.281Z,101566.73
2019-05-30T04:35:18.873Z,101563.91
2019-05-30T04:40:22.590Z,101565.47
2019-05-30T04:45:27.818Z,101568.20
2019-05-30T04:50:31.322Z,101575.23
2019-05-30T04:55:35.036Z,101566.47
2019-05-30T05:00:38.850Z,101573.25
2019-05-30T05:05:42.473Z,101579.05
2019-05-30T05:10:46.027Z,101586.20
2019-05-30T05:15:49.667Z,101578.38
2019-05-30T05:20:53.324Z,101586.13
2019-05-30T05:26:01.205Z,101579.83
2019-05-30T05:31:02.583Z,101576.16
2019-05-30T05:36:06.325Z,101589.59
2019-05-30T05:41:09.890Z,101592.33
2019-05-30T05:46:13.360Z,101587.95
2019-05-30T05:51:17.083Z,101599.28
2019-05-30T05:56:20.883Z,101598.43
2019-05-30T06:01:25.444Z,101597.30
2019-05-30T06:06:31.505Z,101599.97
2019-05-30T06:11:34.428Z,101605.55
2019-05-30T06:16:38.240Z,101618.58
2019-05-30T06:21:53.534Z,101621.18
2019-05-30T06:26:47.311Z,101617.66
2019-05-30T06:31:51.134Z,101622.79
2019-05-30T06:36:54.766Z,101621.14
2019-05-30T06:41:58.385Z,101619.37
2019-05-30T06:47:02.202Z,101615.18
2019-05-30T06:52:05.901Z,101621.52
2019-05-30T06:57:09.541Z,101629.16
2019-05-30T07:02:13.364Z,101638.66
2019-05-30T07:07:17.331Z,101638.66
2019-05-30T07:12:21.049Z,101644.11
2019-05-30T07:17:25.241Z,101652.47
2019-05-30T07:22:29.715Z,101659.22
2019-05-30T07:27:34.150Z,101656.06
2019-05-30T07:32:37.947Z,101662.20
2019-05-30T07:37:44.510Z,101675.12
2019-05-30T07:42:47.736Z,101680.98
2019-05-30T07:47:51.456Z,101678.30
2019-05-30T07:52:54.924Z,101682.31
2019-05-30T07:57:58.573Z,101674.84
2019-05-30T08:03:02.060Z,101675.22
2019-05-30T08:08:06.016Z,101680.28
2019-05-30T08:13:09.668Z,101674.84
2019-05-30T08:18:13.413Z,101678.68
2019-05-30T08:23:16.977Z,101683.41
2019-05-30T08:28:20.740Z,101680.98
2019-05-30T08:33:24.443Z,101680.02
2019-05-30T08:38:28.998Z,101675.15
2019-05-30T08:43:33.406Z,101677.69
2019-05-30T08:48:38.192Z,101676.73
2019-05-30T08:53:42.193Z,101673.50
2019-05-30T08:58:46.415Z,101676.34
2019-05-30T09:03:49.989Z,101686.94
2019-05-30T09:08:53.672Z,101682.69
2019-05-30T09:13:57.215Z,101673.64
2019-05-30T09:19:00.853Z,101669.56
2019-05-30T09:24:05.500Z,101665.72
2019-05-30T09:29:09.265Z,101673.20
2019-05-30T09:34:12.887Z,101685.16
2019-05-30T09:39:16.384Z,101695.03
2019-05-30T09:44:20.112Z,101699.28
2019-05-30T09:49:23.673Z,101692.70
2019-05-30T09:54:27.253Z,101691.98
2019-05-30T09:59:30.989Z,101695.06
2019-05-30T10:04:34.818Z,101688.20
2019-05-30T10:09:38.427Z,101690.16
2019-05-30T10:14:42.147Z,101693.14
2019-05-30T10:19:47.056Z,101697.63
2019-05-30T10:24:51.227Z,101697.56
2019-05-30T10:29:54.906Z,101703.39
2019-05-30T10:34:58.465Z,101712.89
2019-05-30T10:40:02.269Z,101700.55
2019-05-30T10:45:08.679Z,101701.81
2019-05-30T10:50:14.130Z,101703.33
2019-05-30T10:55:18.606Z,101701.75
2019-05-30T11:00:24.246Z,101705.20
2019-05-30T11:05:28.042Z,101715.19
2019-05-30T11:10:37.294Z,101715.19
2019-05-30T11:15:40.971Z,101724.72
2019-05-30T11:20:44.750Z,101720.30
2019-05-30T11:25:48.596Z,101719.98
2019-05-30T11:30:52.781Z,101718.78
2019-05-30T11:35:57.136Z,101724.72
2019-05-30T11:41:00.962Z,101722.80
2019-05-30T11:46:04.971Z,101718.78
2019-05-30T11:51:08.748Z,101716.28
2019-05-30T11:56:12.527Z,101719.91
2019-05-30T12:01:16.775Z,101724.48
2019-05-30T12:06:20.572Z,101729.65
2019-05-30T12:11:24.213Z,101735.06
2019-05-30T12:16:27.788Z,101730.98
2019-05-30T12:21:31.690Z,101739.25
2019-05-30T12:26:35.356Z,101745.37
2019-05-30T12:31:39.074Z,101743.73
2019-05-30T12:36:42.791Z,101754.01
2019-05-30T12:41:46.423Z,101746.30
2019-05-30T12:46:50.034Z,101744.11
2019-05-30T12:51:54.099Z,101755.52
2019-05-30T12:56:58.641Z,101747.50
2019-05-30T13:02:03.086Z,101753.45
2019-05-30T13:07:07.663Z,101752.73
2019-05-30T13:12:11.404Z,101749.70
2019-05-30T13:17:15.126Z,101748.36
2019-05-30T13:22:18.944Z,101732.94
2019-05-30T13:27:22.666Z,101727.94
2019-05-30T13:32:26.334Z,101737.19
2019-05-30T13:37:30.032Z,101735.96
2019-05-30T13:42:33.655Z,101733.11
2019-05-30T13:47:38.861Z,101736.51
2019-05-30T13:52:42.705Z,101746.66
2019-05-30T13:57:46.545Z,101752.99
2019-05-30T14:02:50.510Z,101754.87
2019-05-30T14:07:54.285Z,101756.85
2019-05-30T14:12:57.765Z,101764.63
2019-05-30T14:18:03.200Z,101765.42
2019-05-30T14:23:07.370Z,101776.99
2019-05-30T14:28:12.103Z,101780.08
2019-05-30T14:33:16.191Z,101783.20
2019-05-30T14:38:19.833Z,101787.44
2019-05-30T14:43:23.541Z,101774.14
2019-05-30T14:48:27.326Z,101777.45
2019-05-30T14:53:31.047Z,101777.20
2019-05-30T14:58:34.666Z,101766.12
2019-05-30T15:03:38.219Z,101762.11
2019-05-30T15:08:42.186Z,101759.78
2019-05-30T15:13:45.836Z,101762.45
2019-05-30T15:18:49.442Z,101752.31
2019-05-30T15:23:53.187Z,101752.69
2019-05-30T15:28:56.743Z,101745.56
2019-05-30T15:34:00.422Z,101741.86
2019-05-30T15:39:08.849Z,101745.45
2019-05-30T15:44:13.626Z,101748.06
2019-05-30T15:49:18.434Z,101745.56
2019-05-30T15:54:22.125Z,101749.09
2019-05-30T15:59:25.812Z,101749.78
2019-05-30T16:04:29.584Z,101751.22
2019-05-30T16:09:46.636Z,101749.47
2019-05-30T16:14:41.235Z,101744.67
2019-05-30T16:19:44.884Z,101750.02
2019-05-30T16:24:48.562Z,101735.96
2019-05-30T16:29:52.279Z,101731.77
2019-05-30T16:34:57.476Z,101732.73
2019-05-30T16:40:06.254Z,101723.69
2019-05-30T16:45:09.119Z,101733.52
2019-05-30T16:50:14.747Z,101716.14
2019-05-30T16:55:21.374Z,101726.13
2019-05-30T17:00:25.200Z,101721.16
2019-05-30T17:05:28.813Z,101724.85
2019-05-30T17:10:33.350Z,101720.60
2019-05-30T17:15:37.234Z,101725.95
2019-05-30T17:20:41.059Z,101723.45
2019-05-30T17:25:44.785Z,101737.06
2019-05-30T17:30:48.700Z,101712.27
2019-05-30T17:35:52.336Z,101712.27
2019-05-30T17:40:56.054Z,101729.27
2019-05-30T17:45:59.699Z,101734.22
2019-05-30T17:51:03.383Z,101732.63
2019-05-30T17:56:07.113Z,101736.51
2019-05-30T18:01:10.739Z,101740.66
2019-05-30T18:06:14.473Z,101743.44
2019-05-30T18:11:18.063Z,101736.81
2019-05-30T18:16:21.635Z,101735.48
2019-05-30T18:21:25.446Z,101735.86
2019-05-30T18:26:29.745Z,101737.37
2019-05-30T18:31:34.993Z,101744.05
2019-05-30T18:36:38.661Z,101751.28
2019-05-30T18:41:42.204Z,101754.61
2019-05-30T18:46:45.850Z,101754.61
2019-05-30T18:51:49.678Z,101761.67
2019-05-30T18:56:53.299Z,101768.59
2019-05-30T19:01:56.923Z,101770.92
2019-05-30T19:07:00.746Z,101762.45
2019-05-30T19:12:04.865Z,101772.20
2019-05-30T19:17:08.452Z,101772.84
2019-05-30T19:22:12.303Z,101771.89
2019-05-30T19:27:15.855Z,101785.13
2019-05-30T19:32:19.413Z,101787.70
2019-05-30T19:37:22.992Z,101797.30
2019-05-30T19:42:27.302Z,101798.09
2019-05-30T19:47:32.355Z,101802.83
2019-05-30T19:52:36.932Z,101814.01
2019-05-30T19:57:40.804Z,101818.09
2019-05-30T20:02:44.435Z,101818.95
2019-05-30T20:07:48.156Z,101822.59
2019-05-30T20:12:52.594Z,101831.30
2019-05-30T20:17:56.252Z,101834.94
2019-05-30T20:22:59.928Z,101836.74
2019-05-30T20:28:03.742Z,101840.05
2019-05-30T20:33:07.315Z,101835.10
2019-05-30T20:38:11.090Z,101842.96
2019-05-30T20:43:14.824Z,101845.95
2019-05-30T20:48:18.541Z,101850.14
2019-05-30T20:53:22.248Z,101862.55
2019-05-30T20:58:25.971Z,101860.66
2019-05-30T21:03:29.798Z,101855.90
2019-05-30T21:08:34.816Z,101860.91
2019-05-30T21:13:42.220Z,101865.39
2019-05-30T21:18:46.482Z,101873.48
2019-05-30T21:23:50.100Z,101871.04
2019-05-30T21:28:53.692Z,101875.84
2019-05-30T21:33:57.431Z,101882.53
2019-05-30T21:39:01.067Z,101874.87
2019-05-30T21:44:05.201Z,101877.80
2019-05-30T21:49:08.806Z,101878.20
2019-05-30T21:54:12.640Z,101880.38
2019-05-30T21:59:16.205Z,101885.02
2019-05-30T22:04:20.174Z,101896.04
2019-05-30T22:09:23.725Z,101875.96
2019-05-30T22:14:27.192Z,101887.95
2019-05-30T22:19:31.244Z,101886.30
2019-05-30T22:24:34.955Z,101893.15
2019-05-30T22:29:40.448Z,101891.81
2019-05-30T22:34:44.736Z,101888.56
2019-05-30T22:39:48.915Z,101887.93
2019-05-30T22:44:52.707Z,101890.00
2019-05-30T22:49:57.065Z,101890.38
2019-05-30T22:55:01.046Z,101892.44
2019-05-30T23:00:07.555Z,101894.30
2019-05-30T23:05:12.224Z,101894.14
2019-05-30T23:10:16.229Z,101895.72
2019-05-30T23:15:19.792Z,101888.34
2019-05-30T23:20:23.666Z,101885.73
2019-05-30T23:25:27.265Z,101888.41
2019-05-30T23:30:30.905Z,101887.93
2019-05-30T23:35:34.649Z,101885.13
2019-05-30T23:40:38.212Z,101888.79
2019-05-30T23:45:41.758Z,101886.53
2019-05-30T23:50:45.788Z,101879.67
2019-05-30T23:55:50.204Z,101880.53
